createdAt,value
2022-08-08T00:00:55.239Z,17.67
2022-08-08T00:00:56.316Z,17.71
2022-08-08T00:02:04.277Z,17.78
2022-08-08T00:02:33.618Z,17.70
2022-08-08T00:03:32.257Z,17.73
2022-08-08T00:04:30.376Z,17.71
2022-08-08T00:05:44.144Z,17.81
2022-08-08T00:06:34.169Z,17.74
2022-08-08T00:07:30.241Z,17.82
2022-08-08T00:08:30.219Z,17.79
2022-08-08T00:09:33.164Z,17.74
2022-08-08T00:10:30.175Z,17.70
2022-08-08T00:11:46.641Z,17.71
2022-08-08T00:12:30.419Z,17.70
2022-08-08T00:14:16.563Z,17.73
2022-08-08T00:14:58.866Z,17.76
2022-08-08T00:15:57.265Z,17.73
2022-08-08T00:16:30.035Z,17.76
2022-08-08T00:17:48.217Z,17.74
2022-08-08T00:18:29.989Z,17.76
2022-08-08T00:19:29.967Z,17.81
2022-08-08T00:20:29.943Z,17.73
2022-08-08T00:21:29.922Z,17.88
2022-08-08T00:22:30.384Z,17.84
2022-08-08T00:23:43.035Z,17.85
2022-08-08T00:24:30.231Z,17.85
2022-08-08T00:25:44.668Z,17.82
2022-08-08T00:26:30.101Z,17.79
2022-08-08T00:27:34.715Z,17.81
2022-08-08T00:28:34.931Z,17.82
2022-08-08T00:29:44.734Z,17.94
2022-08-08T00:30:29.717Z,17.82
2022-08-08T00:32:15.531Z,17.88
2022-08-08T00:32:36.371Z,17.88
2022-08-08T00:34:17.476Z,17.88
2022-08-08T00:34:29.625Z,17.85
2022-08-08T00:35:29.607Z,17.95
2022-08-08T00:36:29.577Z,17.94
2022-08-08T00:37:47.484Z,17.87
2022-08-08T00:38:31.466Z,17.84
2022-08-08T00:41:07.076Z,17.88
2022-08-08T00:41:10.839Z,17.87
2022-08-08T00:41:45.276Z,17.84
2022-08-08T00:42:33.242Z,17.87
2022-08-08T00:43:29.633Z,17.84
2022-08-08T00:44:29.392Z,17.84
2022-08-08T00:45:32.170Z,17.84
2022-08-08T00:46:32.059Z,17.73
2022-08-08T00:47:36.788Z,17.74
2022-08-08T00:48:33.840Z,17.71
2022-08-08T00:49:32.351Z,17.73
2022-08-08T00:50:29.255Z,17.71
2022-08-08T00:51:38.325Z,17.66
2022-08-08T00:52:29.208Z,17.66
2022-08-08T00:53:29.419Z,17.64
2022-08-08T00:54:29.177Z,17.63
2022-08-08T00:55:52.838Z,17.59
2022-08-08T00:56:30.200Z,17.62
2022-08-08T00:57:34.445Z,17.64
2022-08-08T00:58:30.482Z,17.62
2022-08-08T00:59:44.723Z,17.55
2022-08-08T01:00:31.173Z,17.50
2022-08-08T01:01:38.466Z,17.53
2022-08-08T01:03:58.547Z,17.54
2022-08-08T01:04:00.977Z,17.55
2022-08-08T01:04:29.785Z,17.51
2022-08-08T01:05:42.391Z,17.43
2022-08-08T01:06:28.893Z,17.44
2022-08-08T01:07:34.419Z,17.35
2022-08-08T01:08:30.229Z,17.40
2022-08-08T01:09:35.494Z,17.35
2022-08-08T01:10:28.796Z,17.38
2022-08-08T01:11:28.776Z,17.28
2022-08-08T01:12:29.880Z,17.30
2022-08-08T01:13:43.869Z,17.36
2022-08-08T01:14:54.040Z,17.25
2022-08-08T01:15:43.385Z,17.18
2022-08-08T01:16:28.658Z,17.11
2022-08-08T01:17:51.435Z,17.18
2022-08-08T01:18:53.418Z,17.04
2022-08-08T01:19:52.501Z,17.08
2022-08-08T01:20:28.572Z,17.14
2022-08-08T01:21:36.933Z,17.10
2022-08-08T01:22:32.468Z,17.07
2022-08-08T01:24:06.644Z,17.04
2022-08-08T01:24:28.471Z,17.07
2022-08-08T01:25:40.824Z,17.00
2022-08-08T01:26:28.560Z,17.08
2022-08-08T01:27:32.916Z,17.10
2022-08-08T01:28:29.493Z,16.96
2022-08-08T01:29:35.687Z,17.10
2022-08-08T01:30:28.341Z,17.06
2022-08-08T01:32:06.550Z,17.07
2022-08-08T01:32:28.399Z,17.03
2022-08-08T01:33:33.848Z,16.98
2022-08-08T01:34:29.094Z,17.03
2022-08-08T01:35:30.199Z,17.04
2022-08-08T01:36:28.194Z,17.10
2022-08-08T01:37:56.439Z,17.06
2022-08-08T01:38:28.149Z,16.98
2022-08-08T01:39:28.456Z,16.95
2022-08-08T01:40:28.255Z,17.03
2022-08-08T01:41:28.079Z,16.99
2022-08-08T01:42:35.962Z,16.99
2022-08-08T01:43:34.469Z,17.04
2022-08-08T01:44:28.009Z,16.96
2022-08-08T01:45:27.984Z,16.98
2022-08-08T01:46:27.962Z,16.95
2022-08-08T01:48:14.949Z,16.96
2022-08-08T01:48:31.335Z,16.92
2022-08-08T01:49:37.524Z,16.93
2022-08-08T01:50:30.002Z,16.93
2022-08-08T01:51:31.892Z,16.96
2022-08-08T01:54:06.570Z,16.93
2022-08-08T01:54:19.402Z,16.96
2022-08-08T01:55:25.939Z,16.98
2022-08-08T01:56:28.454Z,17.04
2022-08-08T01:56:34.097Z,16.95
2022-08-08T01:58:04.006Z,16.99
2022-08-08T01:58:32.043Z,17.00
2022-08-08T01:59:38.217Z,16.96
2022-08-08T02:00:27.831Z,17.00
2022-08-08T02:01:28.094Z,17.13
2022-08-08T02:02:34.935Z,17.04
2022-08-08T02:03:54.963Z,17.04
2022-08-08T02:04:28.297Z,17.07
2022-08-08T02:05:33.991Z,16.98
2022-08-08T02:06:32.469Z,16.98
2022-08-08T02:07:27.476Z,16.98
2022-08-08T02:08:33.784Z,16.98
2022-08-08T02:10:02.454Z,16.93
2022-08-08T02:10:29.821Z,16.90
2022-08-08T02:11:53.077Z,16.92
2022-08-08T02:12:27.744Z,16.92
2022-08-08T02:13:54.598Z,16.90
2022-08-08T02:14:27.310Z,16.92
2022-08-08T02:15:27.287Z,16.89
2022-08-08T02:16:28.352Z,16.90
2022-08-08T02:17:36.496Z,16.90
2022-08-08T02:18:27.214Z,16.90
2022-08-08T02:20:07.117Z,16.92
2022-08-08T02:21:01.550Z,16.81
2022-08-08T02:21:27.144Z,16.81
2022-08-08T02:22:28.208Z,16.90
2022-08-08T02:23:31.843Z,16.85
2022-08-08T02:24:27.077Z,16.90
2022-08-08T02:25:32.783Z,16.80
2022-08-08T02:26:27.032Z,16.77
2022-08-08T02:27:27.009Z,16.83
2022-08-08T02:28:34.976Z,16.71
2022-08-08T02:29:26.959Z,16.62
2022-08-08T02:30:26.935Z,16.55
2022-08-08T02:31:54.217Z,16.55
2022-08-08T02:32:26.897Z,16.56
2022-08-08T02:33:41.654Z,16.53
2022-08-08T02:34:33.219Z,16.48
2022-08-08T02:35:28.402Z,16.38
2022-08-08T02:36:26.798Z,16.35
2022-08-08T02:37:52.043Z,16.34
2022-08-08T02:38:29.151Z,16.31
2022-08-08T02:39:41.090Z,16.27
2022-08-08T02:40:28.122Z,16.25
2022-08-08T02:42:04.262Z,16.14
2022-08-08T02:42:36.298Z,16.04
2022-08-08T02:44:38.904Z,16.06
2022-08-08T02:44:42.989Z,16.03
2022-08-08T02:45:26.580Z,16.00
2022-08-08T02:46:26.556Z,15.96
2022-08-08T02:47:26.534Z,15.92
2022-08-08T02:48:27.456Z,15.92
2022-08-08T02:49:27.697Z,15.94
2022-08-08T02:50:26.465Z,15.92
2022-08-08T02:51:30.495Z,15.96
2022-08-08T02:52:34.741Z,15.92
2022-08-08T02:53:26.396Z,15.97
2022-08-08T02:54:27.904Z,15.86
2022-08-08T02:55:31.739Z,15.97
2022-08-08T02:56:26.323Z,15.92
2022-08-08T02:57:26.301Z,15.97
2022-08-08T02:58:26.739Z,15.94
2022-08-08T02:59:56.840Z,15.93
2022-08-08T03:00:30.913Z,15.97
2022-08-08T03:01:26.237Z,16.03
2022-08-08T03:02:30.379Z,15.97
2022-08-08T03:05:00.882Z,15.96
2022-08-08T03:05:03.997Z,16.04
2022-08-08T03:05:26.111Z,16.06
2022-08-08T03:06:34.327Z,16.03
2022-08-08T03:07:26.066Z,16.04
2022-08-08T03:08:26.038Z,16.04
2022-08-08T03:09:28.573Z,16.04
2022-08-08T03:10:31.746Z,16.03
2022-08-08T03:11:48.071Z,16.18
2022-08-08T03:12:36.749Z,16.04
2022-08-08T03:15:53.872Z,16.14
2022-08-08T03:15:56.685Z,16.12
2022-08-08T03:16:02.229Z,16.04
2022-08-08T03:16:35.734Z,16.20
2022-08-08T03:17:39.069Z,16.16
2022-08-08T03:18:31.569Z,16.23
2022-08-08T03:19:25.780Z,16.23
2022-08-08T03:20:25.754Z,16.26
2022-08-08T03:21:40.889Z,16.22
2022-08-08T03:22:37.535Z,16.31
2022-08-08T03:23:39.915Z,16.31
2022-08-08T03:24:25.698Z,16.27
2022-08-08T03:25:34.062Z,16.40
2022-08-08T03:26:25.622Z,16.31
2022-08-08T03:27:27.306Z,16.33
2022-08-08T03:28:25.567Z,16.31
2022-08-08T03:29:38.131Z,16.37
2022-08-08T03:30:25.522Z,16.27
2022-08-08T03:31:25.807Z,16.30
2022-08-08T03:32:29.076Z,16.27
2022-08-08T03:33:54.969Z,16.33
2022-08-08T03:34:25.424Z,16.30
2022-08-08T03:35:25.400Z,16.30
2022-08-08T03:36:27.651Z,16.31
2022-08-08T03:38:53.401Z,16.23
2022-08-08T03:38:56.873Z,16.30
2022-08-08T03:39:25.326Z,16.23
2022-08-08T03:40:29.181Z,16.22
2022-08-08T03:42:28.228Z,16.23
2022-08-08T03:42:29.937Z,16.18
2022-08-08T03:43:25.212Z,16.18
2022-08-08T03:44:25.348Z,16.20
2022-08-08T03:46:06.417Z,16.16
2022-08-08T03:46:25.537Z,16.16
2022-08-08T03:47:25.237Z,16.11
2022-08-08T03:49:08.954Z,16.23
2022-08-08T03:49:57.633Z,16.16
2022-08-08T03:50:25.977Z,16.16
2022-08-08T03:51:26.432Z,16.25
2022-08-08T03:52:24.999Z,16.20
2022-08-08T03:53:42.460Z,16.18
2022-08-08T03:54:52.592Z,16.16
2022-08-08T03:55:56.792Z,16.25
2022-08-08T03:56:31.119Z,16.11
2022-08-08T03:58:30.193Z,15.99
2022-08-08T03:58:34.566Z,16.18
2022-08-08T03:59:26.301Z,16.03
2022-08-08T04:00:26.212Z,16.00
2022-08-08T04:01:26.135Z,16.01
2022-08-08T04:02:33.237Z,15.96
2022-08-08T04:03:25.984Z,16.01
2022-08-08T04:04:31.195Z,15.96
2022-08-08T04:05:28.334Z,15.93
2022-08-08T04:06:24.667Z,15.92
2022-08-08T04:07:24.642Z,15.93
2022-08-08T04:08:33.326Z,15.94
2022-08-08T04:09:24.595Z,15.89
2022-08-08T04:10:24.582Z,15.92
2022-08-08T04:11:25.333Z,15.86
2022-08-08T04:12:24.525Z,15.93
2022-08-08T04:13:24.501Z,15.92
2022-08-08T04:14:35.842Z,15.96
2022-08-08T04:15:24.453Z,15.85
2022-08-08T04:16:40.757Z,15.93
2022-08-08T04:17:46.682Z,15.93
2022-08-08T04:18:24.383Z,15.84
2022-08-08T04:19:25.437Z,15.85
2022-08-08T04:20:28.481Z,15.94
2022-08-08T04:21:24.310Z,15.92
2022-08-08T04:22:24.524Z,15.94
2022-08-08T04:23:24.264Z,15.96
2022-08-08T04:24:30.428Z,15.97
2022-08-08T04:25:30.073Z,15.97
2022-08-08T04:26:25.930Z,15.96
2022-08-08T04:28:01.462Z,15.92
2022-08-08T04:28:37.152Z,15.99
2022-08-08T04:29:24.118Z,15.93
2022-08-08T04:30:24.103Z,15.97
2022-08-08T04:31:30.753Z,16.03
2022-08-08T04:32:30.623Z,16.03
2022-08-08T04:33:24.026Z,16.04
2022-08-08T04:34:24.004Z,16.03
2022-08-08T04:35:23.977Z,16.03
2022-08-08T04:36:23.954Z,15.99
2022-08-08T04:37:31.905Z,16.06
2022-08-08T04:38:24.283Z,16.03
2022-08-08T04:40:05.514Z,16.07
2022-08-08T04:40:25.253Z,16.16
2022-08-08T04:41:23.901Z,16.23
2022-08-08T04:42:23.810Z,16.15
2022-08-08T04:43:31.755Z,16.14
2022-08-08T04:44:23.761Z,16.14
2022-08-08T04:45:23.737Z,16.14
2022-08-08T04:46:25.096Z,15.97
2022-08-08T04:47:24.453Z,16.18
2022-08-08T04:48:23.667Z,16.20
2022-08-08T04:49:28.792Z,16.12
2022-08-08T04:50:32.589Z,16.23
2022-08-08T04:51:28.122Z,16.22
2022-08-08T04:52:26.879Z,16.25
2022-08-08T04:54:36.348Z,16.16
2022-08-08T04:54:38.186Z,16.20
2022-08-08T04:55:23.499Z,16.25
2022-08-08T04:56:23.477Z,16.31
2022-08-08T04:57:23.453Z,16.33
2022-08-08T04:58:23.430Z,16.35
2022-08-08T04:59:24.188Z,16.34
2022-08-08T05:00:23.383Z,16.31
2022-08-08T05:01:23.369Z,16.35
2022-08-08T05:02:28.746Z,16.34
2022-08-08T05:04:08.983Z,16.33
2022-08-08T05:04:23.287Z,16.37
2022-08-08T05:05:44.792Z,16.34
2022-08-08T05:06:27.821Z,16.42
2022-08-08T05:07:23.215Z,16.37
2022-08-08T05:08:28.702Z,16.38
2022-08-08T05:09:23.167Z,16.42
2022-08-08T05:10:23.145Z,16.42
2022-08-08T05:11:24.417Z,16.58
2022-08-08T05:12:29.519Z,16.53
2022-08-08T05:13:23.071Z,16.55
2022-08-08T05:14:23.050Z,16.55
2022-08-08T05:15:23.024Z,16.53
2022-08-08T05:16:51.150Z,16.56
2022-08-08T05:17:22.976Z,16.58
2022-08-08T05:18:22.955Z,16.60
2022-08-08T05:20:12.959Z,16.56
2022-08-08T05:20:24.582Z,16.63
2022-08-08T05:21:22.881Z,16.67
2022-08-08T05:22:22.945Z,16.59
2022-08-08T05:23:22.834Z,16.70
2022-08-08T05:24:22.813Z,16.81
2022-08-08T05:25:22.787Z,16.80
2022-08-08T05:26:22.763Z,16.86
2022-08-08T05:27:22.741Z,16.88
2022-08-08T05:28:56.604Z,16.90
2022-08-08T05:29:22.694Z,16.93
2022-08-08T05:30:28.431Z,17.00
2022-08-08T05:32:03.785Z,16.95
2022-08-08T05:32:27.102Z,16.89
2022-08-08T05:33:22.599Z,16.92
2022-08-08T05:34:22.577Z,17.03
2022-08-08T05:35:23.516Z,17.06
2022-08-08T05:36:25.264Z,17.07
2022-08-08T05:37:22.505Z,17.10
2022-08-08T05:38:31.936Z,17.06
2022-08-08T05:39:22.485Z,17.07
2022-08-08T05:40:28.279Z,17.10
2022-08-08T05:41:23.184Z,17.06
2022-08-08T05:42:23.971Z,17.07
2022-08-08T05:43:39.403Z,17.11
2022-08-08T05:44:22.340Z,17.13
2022-08-08T05:45:25.684Z,17.20
2022-08-08T05:46:24.554Z,17.20
2022-08-08T05:47:22.270Z,17.14
2022-08-08T05:48:28.329Z,17.15
2022-08-08T05:49:22.220Z,17.23
2022-08-08T05:50:22.198Z,17.33
2022-08-08T05:51:22.177Z,17.29
2022-08-08T05:52:32.079Z,17.40
2022-08-08T05:53:54.321Z,17.33
2022-08-08T05:54:26.921Z,17.36
2022-08-08T05:55:22.079Z,17.36
2022-08-08T05:56:22.056Z,17.50
2022-08-08T05:58:04.194Z,17.48
2022-08-08T05:58:28.850Z,17.51
2022-08-08T05:59:57.697Z,17.57
2022-08-08T06:00:24.748Z,17.57
2022-08-08T06:01:52.656Z,17.54
2022-08-08T06:02:21.918Z,17.66
2022-08-08T06:03:25.269Z,17.67
2022-08-08T06:04:22.624Z,17.62
2022-08-08T06:05:33.066Z,17.67
2022-08-08T06:06:23.410Z,17.73
2022-08-08T06:07:21.800Z,17.82
2022-08-08T06:08:32.953Z,17.79
2022-08-08T06:10:00.123Z,17.81
2022-08-08T06:10:24.569Z,17.87
2022-08-08T06:11:21.707Z,17.87
2022-08-08T06:12:30.223Z,17.87
2022-08-08T06:13:23.319Z,17.85
2022-08-08T06:14:21.638Z,17.84
2022-08-08T06:15:21.613Z,17.95
2022-08-08T06:16:25.152Z,18.04
2022-08-08T06:17:21.610Z,17.91
2022-08-08T06:18:22.165Z,17.99
2022-08-08T06:19:24.055Z,18.03
2022-08-08T06:20:21.495Z,18.07
2022-08-08T06:21:28.179Z,18.04
2022-08-08T06:22:36.783Z,18.19
2022-08-08T06:23:26.287Z,18.13
2022-08-08T06:24:27.140Z,18.22
2022-08-08T06:26:35.776Z,18.22
2022-08-08T06:26:43.361Z,18.34
2022-08-08T06:27:21.343Z,18.29
2022-08-08T06:28:29.008Z,18.34
2022-08-08T06:29:48.742Z,18.34
2022-08-08T06:30:28.342Z,18.34
2022-08-08T06:31:21.240Z,18.34
2022-08-08T06:32:21.217Z,18.36
2022-08-08T06:33:36.603Z,18.49
2022-08-08T06:34:27.326Z,18.36
2022-08-08T06:36:07.486Z,18.36
2022-08-08T06:36:21.127Z,18.40
2022-08-08T06:37:25.009Z,18.50
2022-08-08T06:38:21.082Z,18.59
2022-08-08T06:39:21.855Z,18.62
2022-08-08T06:40:26.676Z,18.70
2022-08-08T06:41:21.009Z,18.64
2022-08-08T06:42:20.990Z,18.67
2022-08-08T06:43:20.964Z,18.67
2022-08-08T06:44:25.253Z,18.67
2022-08-08T06:45:20.917Z,18.72
2022-08-08T06:46:23.872Z,18.64
2022-08-08T06:47:22.361Z,18.72
2022-08-08T06:48:26.452Z,18.73
2022-08-08T06:49:20.827Z,18.86
2022-08-08T06:50:31.797Z,18.82
2022-08-08T06:51:20.781Z,18.80
2022-08-08T06:52:20.759Z,18.82
2022-08-08T06:53:20.946Z,18.98
2022-08-08T06:54:20.714Z,18.92
2022-08-08T06:55:20.690Z,18.95
2022-08-08T06:56:23.189Z,18.95
2022-08-08T06:57:20.646Z,18.95
2022-08-08T06:58:20.621Z,19.01
2022-08-08T06:59:20.598Z,19.06
2022-08-08T07:00:30.312Z,19.10
2022-08-08T07:02:16.649Z,19.05
2022-08-08T07:02:29.175Z,18.95
2022-08-08T07:03:52.215Z,19.06
2022-08-08T07:04:39.800Z,19.06
2022-08-08T07:05:29.701Z,19.10
2022-08-08T07:06:20.437Z,19.21
2022-08-08T07:07:20.415Z,19.18
2022-08-08T07:08:20.394Z,19.20
2022-08-08T07:09:20.918Z,19.36
2022-08-08T07:10:20.347Z,19.29
2022-08-08T07:11:22.513Z,19.38
2022-08-08T07:12:20.301Z,19.46
2022-08-08T07:13:25.062Z,19.47
2022-08-08T07:14:20.255Z,19.40
2022-08-08T07:15:32.416Z,19.55
2022-08-08T07:16:20.209Z,19.43
2022-08-08T07:17:20.191Z,19.40
2022-08-08T07:18:35.467Z,19.43
2022-08-08T07:19:20.142Z,19.43
2022-08-08T07:20:20.118Z,19.50
2022-08-08T07:21:20.401Z,19.58
2022-08-08T07:22:20.075Z,19.57
2022-08-08T07:23:22.430Z,19.51
2022-08-08T07:24:20.029Z,19.58
2022-08-08T07:25:20.006Z,19.57
2022-08-08T07:26:28.803Z,19.72
2022-08-08T07:27:19.962Z,19.70
2022-08-08T07:28:20.179Z,19.78
2022-08-08T07:30:00.510Z,19.83
2022-08-08T07:30:25.678Z,19.75
2022-08-08T07:31:19.887Z,19.76
2022-08-08T07:32:22.275Z,19.87
2022-08-08T07:33:19.827Z,19.86
2022-08-08T07:34:26.808Z,19.78
2022-08-08T07:35:19.783Z,19.72
2022-08-08T07:36:19.759Z,19.76
2022-08-08T07:37:19.736Z,19.76
2022-08-08T07:38:21.105Z,19.83
2022-08-08T07:39:22.573Z,19.93
2022-08-08T07:40:28.771Z,19.97
2022-08-08T07:41:25.065Z,20.10
2022-08-08T07:42:19.623Z,20.21
2022-08-08T07:43:35.219Z,20.23
2022-08-08T07:44:40.115Z,20.27
2022-08-08T07:45:19.558Z,20.21
2022-08-08T07:46:30.165Z,20.35
2022-08-08T07:47:29.028Z,20.42
2022-08-08T07:48:19.596Z,20.47
2022-08-08T07:49:19.469Z,20.38
2022-08-08T07:50:23.434Z,20.47
2022-08-08T07:51:24.426Z,20.47
2022-08-08T07:52:23.236Z,20.58
2022-08-08T07:53:52.411Z,20.58
2022-08-08T07:54:26.407Z,20.61
2022-08-08T07:55:19.338Z,20.58
2022-08-08T07:56:36.091Z,20.59
2022-08-08T07:57:19.928Z,20.68
2022-08-08T07:58:19.267Z,20.64
2022-08-08T07:59:20.050Z,20.68
2022-08-08T08:00:19.223Z,20.69
2022-08-08T08:01:19.761Z,20.68
2022-08-08T08:02:36.436Z,20.74
2022-08-08T08:03:23.459Z,20.79
2022-08-08T08:04:19.135Z,20.80
2022-08-08T08:05:19.114Z,20.90
2022-08-08T08:06:19.091Z,20.89
2022-08-08T08:07:19.071Z,20.83
2022-08-08T08:08:20.560Z,20.86
2022-08-08T08:09:19.027Z,20.89
2022-08-08T08:10:25.188Z,21.01
2022-08-08T08:11:21.138Z,21.04
2022-08-08T08:12:31.664Z,21.13
2022-08-08T08:13:18.940Z,21.20
2022-08-08T08:14:18.920Z,21.24
2022-08-08T08:15:18.898Z,21.23
2022-08-08T08:16:18.873Z,21.27
2022-08-08T08:17:18.852Z,21.26
2022-08-08T08:18:32.408Z,21.32
2022-08-08T08:19:19.643Z,21.39
2022-08-08T08:20:18.796Z,21.34
2022-08-08T08:21:19.170Z,21.32
2022-08-08T08:22:31.231Z,21.26
2022-08-08T08:23:18.723Z,21.26
2022-08-08T08:24:18.910Z,21.36
2022-08-08T08:25:19.375Z,21.24
2022-08-08T08:26:27.508Z,21.26
2022-08-08T08:27:18.634Z,21.27
2022-08-08T08:28:23.731Z,21.26
2022-08-08T08:29:19.510Z,21.27
2022-08-08T08:30:18.586Z,21.26
2022-08-08T08:31:18.548Z,21.42
2022-08-08T08:32:31.850Z,21.32
2022-08-08T08:33:18.506Z,21.39
2022-08-08T08:34:18.482Z,21.44
2022-08-08T08:35:21.496Z,21.50
2022-08-08T08:36:22.004Z,21.45
2022-08-08T08:37:20.603Z,21.46
2022-08-08T08:38:19.150Z,21.38
2022-08-08T08:39:22.945Z,21.29
2022-08-08T08:40:18.404Z,21.30
2022-08-08T08:41:20.203Z,21.39
2022-08-08T08:42:19.407Z,21.51
2022-08-08T08:43:18.682Z,21.64
2022-08-08T08:44:18.267Z,21.61
2022-08-08T08:45:22.752Z,21.76
2022-08-08T08:46:19.118Z,21.78
2022-08-08T08:47:18.209Z,21.79
2022-08-08T08:48:19.426Z,21.92
2022-08-08T08:49:18.161Z,22.07
2022-08-08T08:50:33.151Z,22.04
2022-08-08T08:51:18.117Z,22.01
2022-08-08T08:52:20.626Z,21.97
2022-08-08T08:53:18.097Z,21.98
2022-08-08T08:54:18.058Z,21.92
2022-08-08T08:55:18.032Z,22.04
2022-08-08T08:56:23.694Z,21.91
2022-08-08T08:57:17.991Z,22.04
2022-08-08T08:58:17.970Z,22.01
2022-08-08T08:59:22.103Z,22.04
2022-08-08T09:00:19.285Z,21.90
2022-08-08T09:01:17.974Z,21.99
2022-08-08T09:02:18.001Z,22.13
2022-08-08T09:03:19.337Z,22.12
2022-08-08T09:04:31.164Z,22.20
2022-08-08T09:05:29.098Z,22.22
2022-08-08T09:06:26.640Z,22.27
2022-08-08T09:07:17.779Z,22.16
2022-08-08T09:08:18.451Z,22.17
2022-08-08T09:09:26.742Z,22.17
2022-08-08T09:10:17.832Z,22.27
2022-08-08T09:11:17.694Z,22.27
2022-08-08T09:12:17.673Z,22.23
2022-08-08T09:13:17.649Z,22.41
2022-08-08T09:14:17.627Z,22.43
2022-08-08T09:15:24.166Z,22.53
2022-08-08T09:16:17.588Z,22.41
2022-08-08T09:17:19.104Z,22.41
2022-08-08T09:18:18.129Z,22.38
2022-08-08T09:19:29.172Z,22.44
2022-08-08T09:21:57.187Z,22.53
2022-08-08T09:21:59.849Z,22.60
2022-08-08T09:22:25.806Z,22.68
2022-08-08T09:23:25.527Z,22.52
2022-08-08T09:24:17.620Z,22.46
2022-08-08T09:25:17.397Z,22.43
2022-08-08T09:26:17.375Z,22.35
2022-08-08T09:27:42.119Z,22.53
2022-08-08T09:28:35.451Z,22.59
2022-08-08T09:29:22.540Z,22.65
2022-08-08T09:30:19.995Z,22.71
2022-08-08T09:31:17.275Z,22.80
2022-08-08T09:32:17.251Z,22.92
2022-08-08T09:34:14.575Z,22.90
2022-08-08T09:34:32.713Z,22.78
2022-08-08T09:35:17.191Z,22.89
2022-08-08T09:36:19.189Z,22.97
2022-08-08T09:37:37.341Z,23.05
2022-08-08T09:38:17.681Z,23.11
2022-08-08T09:39:19.313Z,23.20
2022-08-08T09:40:20.143Z,23.26
2022-08-08T09:41:17.066Z,23.26
2022-08-08T09:42:21.178Z,23.22
2022-08-08T09:43:24.178Z,23.23
2022-08-08T09:44:19.119Z,23.42
2022-08-08T09:45:55.310Z,23.34
2022-08-08T09:46:25.625Z,23.40
2022-08-08T09:47:27.631Z,23.64
2022-08-08T09:48:22.802Z,23.60
2022-08-08T09:49:41.127Z,23.58
2022-08-08T09:50:16.969Z,23.49
2022-08-08T09:51:16.859Z,23.47
2022-08-08T09:52:57.516Z,23.61
2022-08-08T09:53:24.791Z,23.49
2022-08-08T09:54:19.976Z,23.46
2022-08-08T09:55:17.517Z,23.49
2022-08-08T09:56:25.178Z,23.60
2022-08-08T09:57:17.439Z,23.61
2022-08-08T09:58:25.918Z,23.64
2022-08-08T09:59:42.770Z,23.65
2022-08-08T10:00:53.540Z,23.80
2022-08-08T10:02:00.023Z,23.82
2022-08-08T10:02:16.636Z,23.86
2022-08-08T10:03:19.911Z,23.90
2022-08-08T10:04:22.343Z,23.75
2022-08-08T10:05:20.038Z,23.75
2022-08-08T10:06:16.559Z,23.92
2022-08-08T10:07:16.777Z,23.90
2022-08-08T10:08:16.515Z,24.00
2022-08-08T10:09:16.493Z,23.98
2022-08-08T10:10:16.471Z,23.94
2022-08-08T10:12:27.158Z,24.04
2022-08-08T10:12:27.931Z,24.12
2022-08-08T10:13:16.414Z,24.07
2022-08-08T10:14:28.528Z,23.95
2022-08-08T10:15:17.324Z,23.90
2022-08-08T10:16:16.349Z,23.87
2022-08-08T10:17:38.781Z,24.04
2022-08-08T10:18:25.398Z,24.20
2022-08-08T10:19:16.289Z,24.17
2022-08-08T10:20:17.128Z,24.24
2022-08-08T10:21:24.964Z,24.22
2022-08-08T10:22:16.234Z,24.31
2022-08-08T10:23:38.024Z,24.38
2022-08-08T10:24:29.521Z,24.41
2022-08-08T10:25:16.791Z,24.42
2022-08-08T10:26:30.835Z,24.42
2022-08-08T10:27:16.131Z,24.53
2022-08-08T10:28:16.109Z,24.54
2022-08-08T10:29:23.091Z,24.49
2022-08-08T10:31:00.754Z,24.44
2022-08-08T10:31:16.050Z,24.61
2022-08-08T10:32:16.038Z,24.61
2022-08-08T10:33:18.066Z,24.71
2022-08-08T10:34:19.304Z,24.61
2022-08-08T10:35:30.294Z,24.50
2022-08-08T10:36:22.193Z,24.54
2022-08-08T10:37:15.936Z,24.63
2022-08-08T10:38:16.311Z,24.79
2022-08-08T10:39:15.936Z,24.79
2022-08-08T10:40:17.067Z,24.71
2022-08-08T10:41:15.852Z,24.75
2022-08-08T10:42:16.967Z,24.90
2022-08-08T10:43:15.813Z,24.90
2022-08-08T10:44:15.791Z,24.82
2022-08-08T10:45:16.348Z,24.87
2022-08-08T10:46:29.913Z,24.88
2022-08-08T10:47:15.738Z,24.85
2022-08-08T10:48:15.714Z,24.94
2022-08-08T10:50:00.635Z,24.87
2022-08-08T10:50:16.061Z,24.91
2022-08-08T10:51:15.658Z,24.98
2022-08-08T10:52:15.634Z,25.07
2022-08-08T10:53:15.615Z,25.06
2022-08-08T10:54:15.594Z,25.13
2022-08-08T10:55:41.586Z,25.13
2022-08-08T10:56:27.319Z,25.30
2022-08-08T10:57:15.537Z,25.13
2022-08-08T10:58:16.025Z,25.09
2022-08-08T10:59:15.543Z,25.16
2022-08-08T11:00:15.478Z,25.15
2022-08-08T11:01:15.840Z,25.24
2022-08-08T11:02:15.523Z,25.39
2022-08-08T11:03:15.785Z,25.46
2022-08-08T11:04:15.422Z,25.28
2022-08-08T11:05:15.381Z,25.25
2022-08-08T11:06:15.361Z,25.20
2022-08-08T11:08:31.194Z,25.39
2022-08-08T11:08:31.334Z,25.31
2022-08-08T11:09:21.366Z,25.38
2022-08-08T11:10:19.836Z,25.35
2022-08-08T11:11:32.068Z,25.42
2022-08-08T11:12:15.255Z,25.32
2022-08-08T11:13:31.939Z,25.42
2022-08-08T11:14:16.008Z,25.38
2022-08-08T11:15:15.190Z,25.49
2022-08-08T11:16:32.152Z,25.49
2022-08-08T11:17:15.805Z,25.67
2022-08-08T11:18:15.128Z,25.67
2022-08-08T11:19:15.735Z,25.54
2022-08-08T11:20:17.807Z,25.53
2022-08-08T11:21:19.533Z,25.65
2022-08-08T11:22:15.054Z,25.62
2022-08-08T11:23:15.037Z,25.67
2022-08-08T11:24:15.014Z,25.80
2022-08-08T11:25:16.292Z,25.74
2022-08-08T11:26:19.316Z,25.61
2022-08-08T11:27:19.669Z,25.57
2022-08-08T11:28:14.938Z,25.72
2022-08-08T11:29:15.798Z,25.62
2022-08-08T11:30:24.385Z,25.59
2022-08-08T11:31:14.887Z,25.59
2022-08-08T11:32:14.964Z,25.49
2022-08-08T11:33:14.846Z,25.57
2022-08-08T11:34:22.949Z,25.59
2022-08-08T11:35:29.379Z,25.74
2022-08-08T11:36:14.791Z,25.75
2022-08-08T11:37:15.723Z,25.79
2022-08-08T11:38:35.330Z,25.91
2022-08-08T11:39:14.770Z,25.83
2022-08-08T11:40:14.748Z,25.83
2022-08-08T11:41:14.690Z,25.97
2022-08-08T11:42:14.671Z,25.89
2022-08-08T11:43:14.663Z,25.97
2022-08-08T11:44:14.640Z,25.89
2022-08-08T11:45:18.485Z,26.09
2022-08-08T11:46:18.081Z,26.20
2022-08-08T11:47:17.492Z,26.12
2022-08-08T11:48:20.248Z,26.08
2022-08-08T11:49:14.778Z,26.12
2022-08-08T11:50:14.519Z,26.27
2022-08-08T11:51:37.215Z,26.40
2022-08-08T11:52:18.292Z,26.40
2022-08-08T11:53:14.467Z,26.46
2022-08-08T11:54:26.823Z,26.49
2022-08-08T11:55:15.575Z,26.44
2022-08-08T11:56:14.412Z,26.37
2022-08-08T11:57:16.964Z,26.36
2022-08-08T11:58:15.651Z,26.25
2022-08-08T11:59:14.354Z,26.36
2022-08-08T12:00:14.333Z,26.20
2022-08-08T12:01:16.394Z,26.35
2022-08-08T12:02:30.971Z,26.17
2022-08-08T12:03:14.364Z,26.04
2022-08-08T12:04:14.258Z,26.15
2022-08-08T12:05:14.243Z,26.04
2022-08-08T12:06:14.221Z,26.11
2022-08-08T12:07:14.418Z,26.29
2022-08-08T12:08:14.185Z,26.39
2022-08-08T12:09:17.209Z,26.58
2022-08-08T12:10:14.971Z,26.59
2022-08-08T12:11:14.129Z,26.44
2022-08-08T12:12:14.111Z,26.36
2022-08-08T12:13:14.302Z,26.28
2022-08-08T12:14:14.075Z,26.22
2022-08-08T12:15:14.055Z,26.32
2022-08-08T12:16:15.756Z,26.40
2022-08-08T12:17:14.017Z,26.36
2022-08-08T12:18:14.000Z,26.42
2022-08-08T12:19:13.981Z,26.36
2022-08-08T12:20:14.630Z,26.49
2022-08-08T12:21:13.943Z,26.72
2022-08-08T12:22:20.534Z,26.80
2022-08-08T12:23:30.521Z,26.83
2022-08-08T12:24:14.094Z,26.91
2022-08-08T12:25:13.869Z,26.80
2022-08-08T12:26:17.114Z,26.81
2022-08-08T12:27:13.831Z,26.77
2022-08-08T12:28:15.703Z,26.80
2022-08-08T12:29:13.794Z,26.89
2022-08-08T12:30:18.480Z,26.87
2022-08-08T12:31:13.758Z,26.86
2022-08-08T12:32:20.304Z,26.94
2022-08-08T12:33:13.721Z,26.81
2022-08-08T12:34:13.704Z,26.80
2022-08-08T12:35:18.005Z,26.86
2022-08-08T12:36:13.667Z,27.01
2022-08-08T12:37:13.648Z,27.11
2022-08-08T12:38:17.949Z,27.16
2022-08-08T12:39:13.727Z,27.05
2022-08-08T12:40:13.671Z,27.02
2022-08-08T12:41:33.953Z,27.05
2022-08-08T12:42:20.929Z,27.16
2022-08-08T12:43:13.542Z,27.17
2022-08-08T12:44:13.524Z,27.09
2022-08-08T12:45:54.722Z,27.23
2022-08-08T12:46:13.488Z,27.32
2022-08-08T12:47:13.470Z,27.23
2022-08-08T12:48:35.584Z,27.17
2022-08-08T12:49:44.009Z,27.20
2022-08-08T12:50:13.418Z,27.28
2022-08-08T12:51:13.397Z,27.38